sensor_id;sensor_type;location;lat;lon;timestamp;pressure;altitude;pressure_sealevel;temperature;humidity
43934;BME280;59081;42.706;23.306;2023-04-09T00:01:18;95412.22;;;5.13;100.00
43934;BME280;59081;42.706;23.306;2023-04-09T00:03:55;95193.63;;;3.85;100.00
43934;BME280;59081;42.706;23.306;2023-04-09T00:06:23;95196.00;;;3.58;100.00
43934;BME280;59081;42.706;23.306;2023-04-09T00:08:48;95466.38;;;5.29;100.00
43934;BME280;59081;42.706;23.306;2023-04-09T00:11:14;95400.47;;;5.23;100.00
43934;BME280;59081;42.706;23.306;2023-04-09T00:13:42;95479.06;;;5.75;100.00
43934;BME280;59081;42.706;23.306;2023-04-09T00:16:11;95264.66;;;4.54;100.00
43934;BME280;59081;42.706;23.306;2023-04-09T00:18:37;95448.59;;;5.73;100.00
43934;BME280;59081;42.706;23.306;2023-04-09T00:21:02;95228.94;;;4.31;100.00
43934;BME280;59081;42.706;23.306;2023-04-09T00:23:37;95230.81;;;4.41;100.00
43934;BME280;59081;42.706;23.306;2023-04-09T00:26:05;95219.13;;;4.44;100.00
43934;BME280;59081;42.706;23.306;2023-04-09T00:28:30;95258.78;;;4.63;100.00
43934;BME280;59081;42.706;23.306;2023-04-09T00:30:56;95371.16;;;5.35;100.00
43934;BME280;59081;42.706;23.306;2023-04-09T00:33:21;95177.94;;;4.17;100.00
43934;BME280;59081;42.706;23.306;2023-04-09T00:35:47;95403.41;;;5.61;100.00
43934;BME280;59081;42.706;23.306;2023-04-09T00:38:13;95487.94;;;6.00;100.00
43934;BME280;59081;42.706;23.306;2023-04-09T00:40:39;95350.59;;;5.12;100.00
43934;BME280;59081;42.706;23.306;2023-04-09T00:43:12;95235.50;;;4.37;100.00
43934;BME280;59081;42.706;23.306;2023-04-09T00:45:38;95324.94;;;4.96;100.00
43934;BME280;59081;42.706;23.306;2023-04-09T00:48:04;95207.44;;;4.40;100.00
43934;BME280;59081;42.706;23.306;2023-04-09T00:50:32;95214.47;;;4.41;100.00
43934;BME280;59081;42.706;23.306;2023-04-09T00:52:59;95221.63;;;3.96;100.00
43934;BME280;59081;42.706;23.306;2023-04-09T00:55:28;95176.56;;;3.63;100.00
43934;BME280;59081;42.706;23.306;2023-04-09T00:57:59;95248.41;;;4.19;100.00
43934;BME280;59081;42.706;23.306;2023-04-09T01:00:25;95320.44;;;4.46;100.00
43934;BME280;59081;42.706;23.306;2023-04-09T01:02:55;95170.75;;;3.40;100.00
43934;BME280;59081;42.706;23.306;2023-04-09T01:05:36;95265.16;;;4.32;100.00
43934;BME280;59081;42.706;23.306;2023-04-09T01:08:31;95243.34;;;4.32;100.00
43934;BME280;59081;42.706;23.306;2023-04-09T01:11:23;95466.16;;;5.75;100.00
43934;BME280;59081;42.706;23.306;2023-04-09T01:14:04;95338.25;;;4.76;100.00
43934;BME280;59081;42.706;23.306;2023-04-09T01:16:36;95223.88;;;4.19;100.00
43934;BME280;59081;42.706;23.306;2023-04-09T01:19:09;95271.28;;;4.57;100.00
43934;BME280;59081;42.706;23.306;2023-04-09T01:21:40;95481.34;;;5.90;100.00
43934;BME280;59081;42.706;23.306;2023-04-09T01:29:32;95473.50;;;6.00;100.00
43934;BME280;59081;42.706;23.306;2023-04-09T01:32:01;95205.50;;;4.44;100.00
43934;BME280;59081;42.706;23.306;2023-04-09T01:34:28;95385.34;;;5.74;100.00
43934;BME280;59081;42.706;23.306;2023-04-09T01:36:57;95223.66;;;4.76;100.00
43934;BME280;59081;42.706;23.306;2023-04-09T01:39:23;95362.38;;;5.65;100.00
43934;BME280;59081;42.706;23.306;2023-04-09T01:41:52;95220.69;;;4.42;100.00
43934;BME280;59081;42.706;23.306;2023-04-09T01:44:22;95232.44;;;4.21;100.00
43934;BME280;59081;42.706;23.306;2023-04-09T01:46:57;95381.47;;;4.95;100.00
43934;BME280;59081;42.706;23.306;2023-04-09T01:49:26;95245.00;;;3.97;100.00
43934;BME280;59081;42.706;23.306;2023-04-09T01:51:53;95461.31;;;5.35;100.00
43934;BME280;59081;42.706;23.306;2023-04-09T01:54:27;95218.91;;;3.89;100.00
43934;BME280;59081;42.706;23.306;2023-04-09T01:56:53;95228.59;;;4.11;100.00
43934;BME280;59081;42.706;23.306;2023-04-09T01:59:21;95432.66;;;5.68;100.00
43934;BME280;59081;42.706;23.306;2023-04-09T02:01:52;95226.84;;;4.57;100.00
43934;BME280;59081;42.706;23.306;2023-04-09T02:04:25;95357.44;;;5.45;100.00
43934;BME280;59081;42.706;23.306;2023-04-09T02:07:41;95315.38;;;5.29;100.00
43934;BME280;59081;42.706;23.306;2023-04-09T02:09:40;95226.00;;;4.70;99.97
43934;BME280;59081;42.706;23.306;2023-04-09T02:12:12;95240.69;;;4.98;98.80
43934;BME280;59081;42.706;23.306;2023-04-09T02:14:39;95386.78;;;5.97;98.93
43934;BME280;59081;42.706;23.306;2023-04-09T02:17:05;95312.94;;;5.45;98.53
43934;BME280;59081;42.706;23.306;2023-04-09T02:19:41;95363.00;;;5.90;98.35
43934;BME280;59081;42.706;23.306;2023-04-09T02:22:11;95385.31;;;5.78;98.09
43934;BME280;59081;42.706;23.306;2023-04-09T02:24:40;95305.59;;;4.51;100.00
43934;BME280;59081;42.706;23.306;2023-04-09T02:27:06;95334.81;;;4.61;100.00
43934;BME280;59081;42.706;23.306;2023-04-09T02:29:32;95197.16;;;3.71;100.00
43934;BME280;59081;42.706;23.306;2023-04-09T02:32:00;95267.53;;;4.08;100.00
43934;BME280;59081;42.706;23.306;2023-04-09T02:34:28;95302.56;;;4.17;100.00
43934;BME280;59081;42.706;23.306;2023-04-09T02:36:56;95470.50;;;5.69;100.00
43934;BME280;59081;42.706;23.306;2023-04-09T02:39:22;95237.13;;;4.20;100.00
43934;BME280;59081;42.706;23.306;2023-04-09T02:41:48;95454.50;;;5.71;100.00
43934;BME280;59081;42.706;23.306;2023-04-09T02:44:14;95286.75;;;4.85;100.00
43934;BME280;59081;42.706;23.306;2023-04-09T02:46:43;95247.50;;;4.65;100.00
43934;BME280;59081;42.706;23.306;2023-04-09T02:49:11;95219.56;;;4.32;100.00
43934;BME280;59081;42.706;23.306;2023-04-09T02:51:39;95300.31;;;5.03;100.00
43934;BME280;59081;42.706;23.306;2023-04-09T02:54:05;95474.97;;;6.11;100.00
43934;BME280;59081;42.706;23.306;2023-04-09T02:56:30;95238.06;;;4.73;100.00
43934;BME280;59081;42.706;23.306;2023-04-09T02:58:56;95351.75;;;5.15;100.00
43934;BME280;59081;42.706;23.306;2023-04-09T03:01:21;95305.09;;;4.81;100.00
43934;BME280;59081;42.706;23.306;2023-04-09T03:03:49;95270.69;;;3.96;100.00
43934;BME280;59081;42.706;23.306;2023-04-09T03:06:18;95431.81;;;4.80;100.00
43934;BME280;59081;42.706;23.306;2023-04-09T03:08:43;95312.34;;;3.86;100.00
43934;BME280;59081;42.706;23.306;2023-04-09T03:11:12;95342.31;;;4.11;100.00
43934;BME280;59081;42.706;23.306;2023-04-09T03:13:40;95272.28;;;3.44;100.00
43934;BME280;59081;42.706;23.306;2023-04-09T03:16:06;95212.38;;;3.37;100.00
43934;BME280;59081;42.706;23.306;2023-04-09T03:18:31;95307.19;;;4.34;100.00
43934;BME280;59081;42.706;23.306;2023-04-09T03:20:57;95321.13;;;4.68;100.00
43934;BME280;59081;42.706;23.306;2023-04-09T03:23:23;95338.19;;;4.90;100.00
43934;BME280;59081;42.706;23.306;2023-04-09T03:25:48;95184.66;;;3.92;100.00
43934;BME280;59081;42.706;23.306;2023-04-09T03:28:14;95282.13;;;4.75;100.00
43934;BME280;59081;42.706;23.306;2023-04-09T03:30:40;95374.97;;;5.51;100.00
43934;BME280;59081;42.706;23.306;2023-04-09T03:33:05;95226.00;;;4.70;100.00
43934;BME280;59081;42.706;23.306;2023-04-09T03:35:31;95315.38;;;5.32;100.00
43934;BME280;59081;42.706;23.306;2023-04-09T03:37:56;95297.06;;;5.25;99.91
43934;BME280;59081;42.706;23.306;2023-04-09T03:40:22;95218.19;;;4.76;98.52
43934;BME280;59081;42.706;23.306;2023-04-09T03:42:48;95363.31;;;4.32;100.00
43934;BME280;59081;42.706;23.306;2023-04-09T03:45:16;95287.84;;;3.61;100.00
43934;BME280;59081;42.706;23.306;2023-04-09T03:47:43;95191.72;;;2.75;100.00
43934;BME280;59081;42.706;23.306;2023-04-09T03:50:09;95457.59;;;4.40;100.00
43934;BME280;59081;42.706;23.306;2023-04-09T03:52:40;95336.06;;;3.50;100.00
43934;BME280;59081;42.706;23.306;2023-04-09T03:55:09;95226.75;;;3.09;100.00
43934;BME280;59081;42.706;23.306;2023-04-09T03:57:37;95414.72;;;4.51;100.00
43934;BME280;59081;42.706;23.306;2023-04-09T04:00:03;95303.78;;;3.91;100.00
43934;BME280;59081;42.706;23.306;2023-04-09T04:02:29;95418.91;;;4.91;100.00
43934;BME280;59081;42.706;23.306;2023-04-09T04:04:58;95444.16;;;5.20;100.00
43934;BME280;59081;42.706;23.306;2023-04-09T04:07:24;95344.13;;;4.71;100.00
43934;BME280;59081;42.706;23.306;2023-04-09T04:09:50;95238.31;;;4.16;100.00
43934;BME280;59081;42.706;23.306;2023-04-09T04:12:16;95388.78;;;5.19;100.00
43934;BME280;59081;42.706;23.306;2023-04-09T04:14:44;95240.16;;;4.44;100.00
43934;BME280;59081;42.706;23.306;2023-04-09T04:17:12;95428.66;;;4.96;100.00
43934;BME280;59081;42.706;23.306;2023-04-09T04:19:38;95217.03;;;3.40;100.00
43934;BME280;59081;42.706;23.306;2023-04-09T04:22:07;95347.38;;;3.77;100.00
43934;BME280;59081;42.706;23.306;2023-04-09T04:24:33;95288.56;;;3.15;100.00
43934;BME280;59081;42.706;23.306;2023-04-09T04:27:01;95487.19;;;4.38;100.00
43934;BME280;59081;42.706;23.306;2023-04-09T04:41:29;95434.50;;;5.01;100.00
43934;BME280;59081;42.706;23.306;2023-04-09T04:43:56;95331.72;;;4.45;100.00
43934;BME280;59081;42.706;23.306;2023-04-09T04:46:22;95401.38;;;4.88;100.00
43934;BME280;59081;42.706;23.306;2023-04-09T04:48:48;95503.38;;;5.51;100.00
43934;BME280;59081;42.706;23.306;2023-04-09T04:51:16;95252.38;;;3.82;100.00
43934;BME280;59081;42.706;23.306;2023-04-09T04:53:42;95237.25;;;3.32;100.00
43934;BME280;59081;42.706;23.306;2023-04-09T04:56:16;95205.38;;;3.11;100.00
43934;BME280;59081;42.706;23.306;2023-04-09T04:58:44;95220.16;;;3.21;100.00
43934;BME280;59081;42.706;23.306;2023-04-09T05:01:11;95221.69;;;3.14;100.00
43934;BME280;59081;42.706;23.306;2023-04-09T05:03:37;95378.16;;;4.13;100.00
43934;BME280;59081;42.706;23.306;2023-04-09T05:06:03;95413.53;;;4.63;100.00
43934;BME280;59081;42.706;23.306;2023-04-09T05:08:31;95234.91;;;3.55;100.00
43934;BME280;59081;42.706;23.306;2023-04-09T05:10:57;95355.16;;;4.28;100.00
43934;BME280;59081;42.706;23.306;2023-04-09T05:13:31;95374.19;;;4.53;100.00
43934;BME280;59081;42.706;23.306;2023-04-09T05:16:06;95369.84;;;4.73;100.00
43934;BME280;59081;42.706;23.306;2023-04-09T05:18:32;95455.38;;;5.50;100.00
43934;BME280;59081;42.706;23.306;2023-04-09T05:21:03;95339.00;;;4.87;100.00
43934;BME280;59081;42.706;23.306;2023-04-09T05:23:29;95221.97;;;4.12;100.00
43934;BME280;59081;42.706;23.306;2023-04-09T05:25:57;95308.16;;;4.90;100.00
43934;BME280;59081;42.706;23.306;2023-04-09T05:28:24;95248.28;;;4.58;100.00
43934;BME280;59081;42.706;23.306;2023-04-09T05:30:53;95220.75;;;4.31;100.00
43934;BME280;59081;42.706;23.306;2023-04-09T05:33:19;95457.78;;;6.11;100.00
43934;BME280;59081;42.706;23.306;2023-04-09T05:35:45;95418.50;;;5.80;100.00
43934;BME280;59081;42.706;23.306;2023-04-09T05:38:13;95387.75;;;5.65;100.00
43934;BME280;59081;42.706;23.306;2023-04-09T05:40:45;95332.84;;;5.42;100.00
43934;BME280;59081;42.706;23.306;2023-04-09T05:43:13;95421.94;;;5.98;99.48
43934;BME280;59081;42.706;23.306;2023-04-09T05:45:39;95291.34;;;5.02;98.45
43934;BME280;59081;42.706;23.306;2023-04-09T05:48:07;95357.81;;;5.47;99.07
43934;BME280;59081;42.706;23.306;2023-04-09T05:50:33;95401.75;;;5.74;97.96
43934;BME280;59081;42.706;23.306;2023-04-09T05:52:59;95343.13;;;5.20;98.81
43934;BME280;59081;42.706;23.306;2023-04-09T05:55:27;95282.41;;;4.95;100.00
43934;BME280;59081;42.706;23.306;2023-04-09T05:57:53;95446.19;;;5.92;100.00
43934;BME280;59081;42.706;23.306;2023-04-09T06:00:21;95224.81;;;4.78;98.26
43934;BME280;59081;42.706;23.306;2023-04-09T06:02:52;95477.72;;;6.59;97.43
43934;BME280;59081;42.706;23.306;2023-04-09T06:05:18;95259.31;;;5.13;96.97
43934;BME280;59081;42.706;23.306;2023-04-09T06:07:44;95389.88;;;6.06;96.72
43934;BME280;59081;42.706;23.306;2023-04-09T06:10:10;95506.34;;;6.96;96.57
43934;BME280;59081;42.706;23.306;2023-04-09T06:12:35;95241.91;;;5.45;95.80
43934;BME280;59081;42.706;23.306;2023-04-09T06:15:02;95286.81;;;5.96;95.39
43934;BME280;59081;42.706;23.306;2023-04-09T06:17:28;95270.03;;;5.93;93.83
43934;BME280;59081;42.706;23.306;2023-04-09T06:19:56;95380.63;;;6.75;91.87
43934;BME280;59081;42.706;23.306;2023-04-09T06:22:21;95248.94;;;5.94;90.44
43934;BME280;59081;42.706;23.306;2023-04-09T06:24:50;95505.09;;;7.79;90.51
43934;BME280;59081;42.706;23.306;2023-04-09T06:27:16;95353.81;;;6.93;89.18
43934;BME280;59081;42.706;23.306;2023-04-09T06:29:43;95419.56;;;7.27;88.53
43934;BME280;59081;42.706;23.306;2023-04-09T06:32:11;95349.88;;;6.60;88.38
43934;BME280;59081;42.706;23.306;2023-04-09T06:34:42;95516.28;;;7.92;87.37
43934;BME280;59081;42.706;23.306;2023-04-09T06:37:08;95288.53;;;6.57;86.81
43934;BME280;59081;42.706;23.306;2023-04-09T06:39:33;95221.78;;;6.14;85.94
43934;BME280;59081;42.706;23.306;2023-04-09T06:42:02;95232.75;;;6.10;86.40
43934;BME280;59081;42.706;23.306;2023-04-09T06:44:32;95332.00;;;6.86;86.79
43934;BME280;59081;42.706;23.306;2023-04-09T06:46:58;95467.69;;;7.92;85.93
43934;BME280;59081;42.706;23.306;2023-04-09T06:49:26;95477.88;;;7.92;84.20
43934;BME280;59081;42.706;23.306;2023-04-09T06:52:01;95371.25;;;7.40;84.28
43934;BME280;59081;42.706;23.306;2023-04-09T06:54:26;95421.56;;;7.53;83.43
43934;BME280;59081;42.706;23.306;2023-04-09T06:56:55;95370.25;;;7.27;82.51
43934;BME280;59081;42.706;23.306;2023-04-09T06:59:23;95365.41;;;7.38;81.52
43934;BME280;59081;42.706;23.306;2023-04-09T07:01:48;95351.84;;;7.54;82.62
43934;BME280;59081;42.706;23.306;2023-04-09T07:04:14;95476.47;;;8.37;81.70
43934;BME280;59081;42.706;23.306;2023-04-09T07:06:40;95364.22;;;7.66;81.36
43934;BME280;59081;42.706;23.306;2023-04-09T07:09:05;95270.66;;;6.80;82.28
43934;BME280;59081;42.706;23.306;2023-04-09T07:11:34;95277.75;;;7.08;82.48
43934;BME280;59081;42.706;23.306;2023-04-09T07:14:01;95239.78;;;6.76;81.95
43934;BME280;59081;42.706;23.306;2023-04-09T07:16:29;95507.47;;;8.61;81.87
43934;BME280;59081;42.706;23.306;2023-04-09T07:18:57;95383.09;;;7.87;81.14
43934;BME280;59081;42.706;23.306;2023-04-09T07:21:25;95387.59;;;8.01;80.35
43934;BME280;59081;42.706;23.306;2023-04-09T07:23:52;95440.53;;;8.52;78.87
43934;BME280;59081;42.706;23.306;2023-04-09T07:26:18;95325.94;;;7.86;78.20
43934;BME280;59081;42.706;23.306;2023-04-09T07:28:44;95275.28;;;7.44;76.26
43934;BME280;59081;42.706;23.306;2023-04-09T07:31:12;95294.09;;;7.42;76.59
43934;BME280;59081;42.706;23.306;2023-04-09T07:33:41;95230.25;;;6.91;75.32
43934;BME280;59081;42.706;23.306;2023-04-09T07:36:07;95233.59;;;7.02;77.21
43934;BME280;59081;42.706;23.306;2023-04-09T07:38:36;95419.94;;;8.40;77.22
43934;BME280;59081;42.706;23.306;2023-04-09T07:41:01;95239.44;;;7.04;74.29
43934;BME280;59081;42.706;23.306;2023-04-09T07:43:27;95400.75;;;7.86;73.84
43934;BME280;59081;42.706;23.306;2023-04-09T07:45:53;95274.06;;;6.91;73.70
43934;BME280;59081;42.706;23.306;2023-04-09T07:48:18;95315.91;;;7.22;73.76
43934;BME280;59081;42.706;23.306;2023-04-09T07:50:44;95290.09;;;7.19;74.30
43934;BME280;59081;42.706;23.306;2023-04-09T07:53:12;95485.16;;;8.59;73.82
43934;BME280;59081;42.706;23.306;2023-04-09T07:55:39;95434.28;;;8.51;73.14
43934;BME280;59081;42.706;23.306;2023-04-09T07:58:05;95290.31;;;7.59;71.46
43934;BME280;59081;42.706;23.306;2023-04-09T08:00:33;95547.03;;;9.14;70.47
43934;BME280;59081;42.706;23.306;2023-04-09T08:02:59;95487.47;;;8.84;70.12
43934;BME280;59081;42.706;23.306;2023-04-09T08:05:25;95299.72;;;7.58;69.20
43934;BME280;59081;42.706;23.306;2023-04-09T08:07:51;95429.25;;;8.19;70.19
43934;BME280;59081;42.706;23.306;2023-04-09T08:10:17;95310.94;;;7.40;70.21
43934;BME280;59081;42.706;23.306;2023-04-09T08:12:46;95540.50;;;9.04;70.91
43934;BME280;59081;42.706;23.306;2023-04-09T08:15:12;95328.94;;;7.41;70.49
43934;BME280;59081;42.706;23.306;2023-04-09T08:17:41;95481.03;;;8.17;71.99
43934;BME280;59081;42.706;23.306;2023-04-09T08:20:07;95323.66;;;7.27;72.01
43934;BME280;59081;42.706;23.306;2023-04-09T08:22:35;95354.81;;;7.67;72.23
43934;BME280;59081;42.706;23.306;2023-04-09T08:25:01;95324.84;;;7.53;72.13
43934;BME280;59081;42.706;23.306;2023-04-09T08:27:29;95245.75;;;7.01;72.19
43934;BME280;59081;42.706;23.306;2023-04-09T08:29:54;95552.06;;;8.96;73.35
43934;BME280;59081;42.706;23.306;2023-04-09T08:32:20;95471.56;;;8.49;72.78
43934;BME280;59081;42.706;23.306;2023-04-09T08:34:46;95395.72;;;8.08;72.24
43934;BME280;59081;42.706;23.306;2023-04-09T08:37:12;95435.75;;;8.32;71.89
43934;BME280;59081;42.706;23.306;2023-04-09T08:39:40;95383.63;;;7.79;72.17
43934;BME280;59081;42.706;23.306;2023-04-09T08:42:10;95379.13;;;7.92;71.33
43934;BME280;59081;42.706;23.306;2023-04-09T08:44:39;95258.78;;;7.20;71.60
43934;BME280;59081;42.706;23.306;2023-04-09T08:47:08;95256.97;;;7.37;71.69
43934;BME280;59081;42.706;23.306;2023-04-09T08:49:37;95295.53;;;7.77;70.07
43934;BME280;59081;42.706;23.306;2023-04-09T08:52:08;95413.53;;;8.93;69.89
43934;BME280;59081;42.706;23.306;2023-04-09T08:54:34;95358.31;;;8.88;68.37
43934;BME280;59081;42.706;23.306;2023-04-09T08:57:04;95500.63;;;9.79;68.16
43934;BME280;59081;42.706;23.306;2023-04-09T08:59:29;95260.50;;;8.31;67.84
43934;BME280;59081;42.706;23.306;2023-04-09T09:02:09;95300.03;;;8.57;68.18
43934;BME280;59081;42.706;23.306;2023-04-09T09:04:48;95272.50;;;8.41;67.74
43934;BME280;59081;42.706;23.306;2023-04-09T09:07:15;95271.13;;;8.29;67.72
43934;BME280;59081;42.706;23.306;2023-04-09T09:09:58;95388.19;;;9.05;67.72
43934;BME280;59081;42.706;23.306;2023-04-09T09:12:43;95282.16;;;8.25;68.13
43934;BME280;59081;42.706;23.306;2023-04-09T09:15:27;95367.75;;;9.06;67.53
43934;BME280;59081;42.706;23.306;2023-04-09T09:17:58;95273.34;;;8.37;68.35
43934;BME280;59081;42.706;23.306;2023-04-09T09:20:25;95279.53;;;8.42;68.18
43934;BME280;59081;42.706;23.306;2023-04-09T09:22:53;95290.66;;;8.54;68.21
43934;BME280;59081;42.706;23.306;2023-04-09T09:25:20;95316.81;;;8.62;68.40
43934;BME280;59081;42.706;23.306;2023-04-09T09:27:50;95531.31;;;9.77;69.32
43934;BME280;59081;42.706;23.306;2023-04-09T09:30:23;95442.81;;;9.23;70.17
43934;BME280;59081;42.706;23.306;2023-04-09T09:33:06;95361.69;;;8.95;69.58
43934;BME280;59081;42.706;23.306;2023-04-09T09:35:52;95286.22;;;8.41;69.97
43934;BME280;59081;42.706;23.306;2023-04-09T09:38:19;95263.38;;;8.24;69.33
43934;BME280;59081;42.706;23.306;2023-04-09T09:40:48;95275.91;;;8.25;69.74
43934;BME280;59081;42.706;23.306;2023-04-09T09:43:14;95538.66;;;10.04;69.25
43934;BME280;59081;42.706;23.306;2023-04-09T09:45:43;95456.50;;;10.22;68.01
43934;BME280;59081;42.706;23.306;2023-04-09T09:48:11;95398.03;;;9.98;65.84
43934;BME280;59081;42.706;23.306;2023-04-09T09:50:38;95289.66;;;9.60;65.40
43934;BME280;59081;42.706;23.306;2023-04-09T09:53:07;95266.09;;;9.59;64.83
43934;BME280;59081;42.706;23.306;2023-04-09T09:55:36;95495.91;;;11.33;63.65
43934;BME280;59081;42.706;23.306;2023-04-09T09:58:18;95413.59;;;10.73;62.31
43934;BME280;59081;42.706;23.306;2023-04-09T10:00:50;95414.19;;;10.65;62.25
43934;BME280;59081;42.706;23.306;2023-04-09T10:03:23;95436.81;;;10.89;61.92
43934;BME280;59081;42.706;23.306;2023-04-09T10:05:52;95338.28;;;10.76;60.22
43934;BME280;59081;42.706;23.306;2023-04-09T10:08:22;95248.63;;;10.59;59.17
43934;BME280;59081;42.706;23.306;2023-04-09T10:10:51;95376.00;;;11.25;58.20
43934;BME280;59081;42.706;23.306;2023-04-09T10:13:29;95399.72;;;11.35;58.10
43934;BME280;59081;42.706;23.306;2023-04-09T10:16:01;95257.84;;;10.24;58.32
43934;BME280;59081;42.706;23.306;2023-04-09T10:18:28;95317.34;;;10.50;56.93
43934;BME280;59081;42.706;23.306;2023-04-09T10:23:47;95253.38;;;10.30;56.88
43934;BME280;59081;42.706;23.306;2023-04-09T10:26:13;95384.34;;;11.21;57.02
43934;BME280;59081;42.706;23.306;2023-04-09T10:28:39;95392.13;;;11.10;57.78
43934;BME280;59081;42.706;23.306;2023-04-09T10:31:06;95386.13;;;11.28;57.89
43934;BME280;59081;42.706;23.306;2023-04-09T10:33:32;95227.16;;;10.54;56.48
43934;BME280;59081;42.706;23.306;2023-04-09T10:36:03;95393.78;;;11.36;57.41
43934;BME280;59081;42.706;23.306;2023-04-09T10:38:37;95419.63;;;11.42;57.58
43934;BME280;59081;42.706;23.306;2023-04-09T10:41:26;95408.47;;;12.00;56.28
43934;BME280;59081;42.706;23.306;2023-04-09T10:43:52;95346.97;;;11.87;55.21
43934;BME280;59081;42.706;23.306;2023-04-09T10:49:11;95264.28;;;11.58;54.73
43934;BME280;59081;42.706;23.306;2023-04-09T10:51:39;95328.75;;;12.02;54.20
43934;BME280;59081;42.706;23.306;2023-04-09T10:59:33;95390.03;;;11.84;55.29
43934;BME280;59081;42.706;23.306;2023-04-09T11:02:06;95252.34;;;11.74;53.51
43934;BME280;59081;42.706;23.306;2023-04-09T11:04:57;95427.22;;;13.72;51.63
43934;BME280;59081;42.706;23.306;2023-04-09T11:07:26;95286.06;;;12.98;51.48
43934;BME280;59081;42.706;23.306;2023-04-09T11:09:54;95367.50;;;13.18;50.90
43934;BME280;59081;42.706;23.306;2023-04-09T11:12:20;95279.16;;;11.99;52.41
43934;BME280;59081;42.706;23.306;2023-04-09T11:14:45;95241.09;;;11.81;52.54
43934;BME280;59081;42.706;23.306;2023-04-09T11:17:12;95421.25;;;12.83;52.51
43934;BME280;59081;42.706;23.306;2023-04-09T11:19:40;95213.19;;;11.41;53.17
43934;BME280;59081;42.706;23.306;2023-04-09T11:22:05;95203.69;;;11.29;54.56
43934;BME280;59081;42.706;23.306;2023-04-09T11:24:41;95190.66;;;11.30;52.73
43934;BME280;59081;42.706;23.306;2023-04-09T11:27:07;95388.59;;;12.90;51.93
43934;BME280;59081;42.706;23.306;2023-04-09T11:29:35;95220.22;;;11.67;52.99
43934;BME280;59081;42.706;23.306;2023-04-09T11:32:01;95331.59;;;12.37;51.52
43934;BME280;59081;42.706;23.306;2023-04-09T11:34:30;95321.00;;;11.72;53.63
43934;BME280;59081;42.706;23.306;2023-04-09T11:36:58;95191.88;;;10.49;55.83
43934;BME280;59081;42.706;23.306;2023-04-09T11:39:26;95209.53;;;10.64;56.01
43934;BME280;59081;42.706;23.306;2023-04-09T11:41:55;95170.97;;;10.23;56.80
43934;BME280;59081;42.706;23.306;2023-04-09T11:44:29;95366.66;;;11.47;56.82
43934;BME280;59081;42.706;23.306;2023-04-09T11:47:12;95428.44;;;11.79;57.94
43934;BME280;59081;42.706;23.306;2023-04-09T11:49:41;95252.19;;;11.01;60.75
43934;BME280;59081;42.706;23.306;2023-04-09T11:52:11;95246.41;;;10.83;56.74
43934;BME280;59081;42.706;23.306;2023-04-09T11:54:50;95149.88;;;10.32;54.71
43934;BME280;59081;42.706;23.306;2023-04-09T11:57:19;95362.16;;;11.54;54.10
43934;BME280;59081;42.706;23.306;2023-04-09T11:59:48;95404.75;;;11.94;53.97
43934;BME280;59081;42.706;23.306;2023-04-09T12:02:28;95145.31;;;10.26;52.68
43934;BME280;59081;42.706;23.306;2023-04-09T12:05:30;95191.53;;;10.47;52.06
43934;BME280;59081;42.706;23.306;2023-04-09T12:08:03;95151.78;;;10.48;51.66
43934;BME280;59081;42.706;23.306;2023-04-09T12:10:46;95124.69;;;10.18;50.14
43934;BME280;59081;42.706;23.306;2023-04-09T12:13:37;95163.47;;;10.52;50.51
43934;BME280;59081;42.706;23.306;2023-04-09T12:16:22;95161.59;;;10.49;51.24
43934;BME280;59081;42.706;23.306;2023-04-09T12:18:56;95149.88;;;10.45;51.85
43934;BME280;59081;42.706;23.306;2023-04-09T12:21:25;95294.25;;;11.43;52.68
43934;BME280;59081;42.706;23.306;2023-04-09T12:23:52;95179.84;;;10.85;51.72
43934;BME280;59081;42.706;23.306;2023-04-09T12:26:21;95274.63;;;11.67;51.22
43934;BME280;59081;42.706;23.306;2023-04-09T12:28:50;95148.66;;;10.88;52.08
43934;BME280;59081;42.706;23.306;2023-04-09T12:31:24;95236.63;;;10.95;53.75
43934;BME280;59081;42.706;23.306;2023-04-09T12:33:56;95379.56;;;11.92;54.67
43934;BME280;59081;42.706;23.306;2023-04-09T12:36:45;95269.09;;;11.29;54.07
43934;BME280;59081;42.706;23.306;2023-04-09T12:39:21;95176.56;;;11.02;52.39
43934;BME280;59081;42.706;23.306;2023-04-09T12:41:50;95249.81;;;11.41;52.30
43934;BME280;59081;42.706;23.306;2023-04-09T12:44:18;95163.66;;;10.87;52.85
43934;BME280;59081;42.706;23.306;2023-04-09T12:46:57;95135.50;;;10.66;52.34
43934;BME280;59081;42.706;23.306;2023-04-09T12:49:23;95236.91;;;11.89;52.20
43934;BME280;59081;42.706;23.306;2023-04-09T12:51:58;95316.50;;;12.63;50.37
43934;BME280;59081;42.706;23.306;2023-04-09T12:57:35;95216.59;;;11.70;50.29
43934;BME280;59081;42.706;23.306;2023-04-09T13:00:06;95145.88;;;11.26;50.18
43934;BME280;59081;42.706;23.306;2023-04-09T13:02:37;95120.56;;;11.05;49.92
43934;BME280;59081;42.706;23.306;2023-04-09T13:05:11;95154.06;;;11.04;51.04
43934;BME280;59081;42.706;23.306;2023-04-09T13:07:53;95166.84;;;10.98;50.24
43934;BME280;59081;42.706;23.306;2023-04-09T13:10:21;95285.91;;;11.60;49.16
43934;BME280;59081;42.706;23.306;2023-04-09T13:12:47;95164.53;;;10.96;48.36
43934;BME280;59081;42.706;23.306;2023-04-09T13:15:13;95215.63;;;11.39;48.15
43934;BME280;59081;42.706;23.306;2023-04-09T13:17:49;95136.75;;;10.91;50.83
43934;BME280;59081;42.706;23.306;2023-04-09T13:20:21;95361.53;;;12.38;51.11
43934;BME280;59081;42.706;23.306;2023-04-09T13:22:50;95352.19;;;12.10;52.34
43934;BME280;59081;42.706;23.306;2023-04-09T13:25:25;95202.34;;;10.96;52.80
43934;BME280;59081;42.706;23.306;2023-04-09T13:28:05;95362.50;;;11.68;53.91
43934;BME280;59081;42.706;23.306;2023-04-09T13:30:31;95151.50;;;10.30;55.97
43934;BME280;59081;42.706;23.306;2023-04-09T13:33:04;95179.91;;;10.56;56.86
43934;BME280;59081;42.706;23.306;2023-04-09T13:35:36;95345.06;;;11.71;59.11